createdAt,value
2017-09-17T00:00:38.949Z,8.75
2017-09-17T00:03:07.255Z,8.70
2017-09-17T00:05:35.585Z,8.51
2017-09-17T00:08:03.881Z,8.45
2017-09-17T00:10:32.173Z,8.41
2017-09-17T00:13:00.485Z,8.45
2017-09-17T00:15:29.562Z,8.34
2017-09-17T00:17:57.878Z,8.19
2017-09-17T00:20:26.178Z,8.02
2017-09-17T00:22:54.485Z,7.94
2017-09-17T00:25:22.787Z,7.99
2017-09-17T00:27:51.862Z,8.02
2017-09-17T00:30:20.169Z,8.03
2017-09-17T00:32:49.250Z,8.00
2017-09-17T00:35:17.558Z,7.97
2017-09-17T00:37:45.894Z,7.87
2017-09-17T00:40:14.214Z,7.84
2017-09-17T00:42:42.510Z,7.82
2017-09-17T00:45:10.868Z,7.89
2017-09-17T00:47:39.178Z,7.86
2017-09-17T00:50:07.540Z,7.72
2017-09-17T00:52:35.829Z,7.65
2017-09-17T00:55:04.141Z,7.59
2017-09-17T00:57:32.434Z,7.48
2017-09-17T01:00:01.518Z,7.43
2017-09-17T01:02:29.826Z,7.36
2017-09-17T01:04:58.137Z,7.34
2017-09-17T01:07:26.442Z,7.28
2017-09-17T01:09:54.790Z,7.24
2017-09-17T01:12:23.092Z,7.23
2017-09-17T01:14:51.406Z,7.22
2017-09-17T01:17:19.714Z,7.29
2017-09-17T01:19:48.020Z,7.30
2017-09-17T01:22:16.329Z,7.32
2017-09-17T01:24:45.456Z,7.39
2017-09-17T01:27:13.772Z,7.51
2017-09-17T01:29:42.098Z,7.54
2017-09-17T01:32:10.414Z,7.52
2017-09-17T01:34:39.490Z,7.53
2017-09-17T01:37:07.818Z,7.42
2017-09-17T01:39:36.163Z,7.32
2017-09-17T01:42:04.474Z,7.26
2017-09-17T01:44:33.554Z,7.17
2017-09-17T01:47:01.866Z,7.14
2017-09-17T01:49:30.186Z,7.21
2017-09-17T01:51:58.486Z,7.27
2017-09-17T01:54:26.810Z,7.33
2017-09-17T01:56:55.107Z,7.34
2017-09-17T01:59:23.414Z,7.26
2017-09-17T02:01:51.723Z,7.30
2017-09-17T02:04:20.042Z,7.29
2017-09-17T02:06:48.349Z,7.32
2017-09-17T02:09:16.661Z,7.28
2017-09-17T02:11:44.973Z,7.26
2017-09-17T02:14:13.305Z,7.16
2017-09-17T02:16:42.369Z,7.09
2017-09-17T02:19:10.686Z,7.13
2017-09-17T02:21:39.757Z,7.08
2017-09-17T02:24:08.050Z,7.09
2017-09-17T02:26:37.120Z,7.14
2017-09-17T02:29:05.445Z,7.13
2017-09-17T02:31:33.782Z,7.09
2017-09-17T02:34:02.087Z,7.09
2017-09-17T02:36:30.392Z,7.14
2017-09-17T02:38:58.680Z,7.13
2017-09-17T02:41:26.986Z,7.10
2017-09-17T02:43:55.292Z,7.08
2017-09-17T02:46:23.593Z,7.08
2017-09-17T02:48:51.885Z,7.06
2017-09-17T02:51:20.190Z,6.98
2017-09-17T02:53:48.489Z,6.95
2017-09-17T02:56:17.597Z,6.89
2017-09-17T02:58:46.668Z,6.84
2017-09-17T03:01:14.965Z,6.73
2017-09-17T03:03:44.036Z,6.61
2017-09-17T03:06:12.328Z,6.54
2017-09-17T03:08:41.401Z,6.56
2017-09-17T03:11:09.712Z,6.53
2017-09-17T03:13:38.024Z,6.46
2017-09-17T03:16:06.332Z,6.38
2017-09-17T03:18:34.649Z,6.34
2017-09-17T03:21:02.964Z,6.31
2017-09-17T03:23:31.278Z,6.29
2017-09-17T03:25:59.570Z,6.32
2017-09-17T03:28:28.668Z,6.39
2017-09-17T03:30:56.966Z,6.52
2017-09-17T03:33:25.268Z,6.63
2017-09-17T03:35:53.577Z,6.69
2017-09-17T03:38:22.654Z,6.64
2017-09-17T03:40:50.969Z,6.57
2017-09-17T03:43:20.047Z,6.53
2017-09-17T03:45:48.353Z,6.47
2017-09-17T03:48:16.649Z,6.53
2017-09-17T03:50:45.228Z,6.61
2017-09-17T03:53:13.521Z,6.64
2017-09-17T03:55:41.844Z,6.59
2017-09-17T03:58:10.917Z,6.61
2017-09-17T04:00:39.240Z,6.47
2017-09-17T04:03:07.534Z,6.44
2017-09-17T04:05:35.829Z,6.46
2017-09-17T04:08:04.146Z,6.41
2017-09-17T04:10:33.212Z,6.46
2017-09-17T04:13:01.520Z,6.55
2017-09-17T04:15:30.602Z,6.63
2017-09-17T04:17:58.916Z,6.63
2017-09-17T04:20:27.209Z,6.57
2017-09-17T04:22:55.517Z,6.40
2017-09-17T04:25:23.812Z,6.28
2017-09-17T04:27:52.148Z,6.18
2017-09-17T04:30:20.442Z,6.14
2017-09-17T04:32:48.750Z,6.14
2017-09-17T04:35:17.834Z,6.04
2017-09-17T04:37:46.138Z,6.13
2017-09-17T04:40:15.208Z,6.13
2017-09-17T04:42:43.517Z,6.19
2017-09-17T04:45:11.821Z,6.15
2017-09-17T04:47:40.113Z,6.22
2017-09-17T04:50:08.431Z,6.23
2017-09-17T04:52:37.498Z,6.11
2017-09-17T04:55:05.839Z,5.97
2017-09-17T04:57:34.140Z,5.95
2017-09-17T05:00:02.441Z,5.96
2017-09-17T05:02:30.758Z,6.04
2017-09-17T05:04:59.053Z,6.01
2017-09-17T05:07:27.365Z,6.11
2017-09-17T05:09:55.670Z,6.07
2017-09-17T05:12:24.743Z,6.08
2017-09-17T05:14:53.041Z,6.02
2017-09-17T05:17:22.133Z,6.06
2017-09-17T05:19:51.212Z,6.22
2017-09-17T05:22:19.517Z,6.36
2017-09-17T05:24:48.589Z,6.45
2017-09-17T05:27:16.916Z,6.56
2017-09-17T05:29:45.221Z,6.62
2017-09-17T05:32:13.521Z,6.75
2017-09-17T05:34:41.816Z,6.86
2017-09-17T05:37:10.132Z,7.03
2017-09-17T05:39:38.461Z,7.17
2017-09-17T05:42:07.514Z,7.39
2017-09-17T05:44:35.812Z,7.32
2017-09-17T05:47:04.132Z,7.50
2017-09-17T05:49:32.428Z,7.64
2017-09-17T05:52:00.728Z,7.85
2017-09-17T05:54:29.028Z,7.98
2017-09-17T05:56:57.412Z,8.17
2017-09-17T05:59:25.717Z,8.43
2017-09-17T06:01:54.055Z,8.71
2017-09-17T06:04:22.358Z,8.72
2017-09-17T06:06:51.426Z,8.74
2017-09-17T06:09:19.743Z,8.95
2017-09-17T06:11:48.041Z,9.24
2017-09-17T06:14:16.356Z,10.39
2017-09-17T06:16:44.654Z,9.95
2017-09-17T06:19:12.958Z,10.25
2017-09-17T06:21:41.261Z,9.97
2017-09-17T06:24:09.576Z,9.48
2017-09-17T06:26:37.869Z,10.00
2017-09-17T06:29:06.945Z,10.64
2017-09-17T06:31:35.260Z,10.52
2017-09-17T06:34:03.577Z,10.61
2017-09-17T06:36:31.876Z,10.62
2017-09-17T06:39:00.173Z,10.52
2017-09-17T06:41:29.256Z,10.74
2017-09-17T06:43:57.576Z,10.96
2017-09-17T06:46:25.920Z,11.24
2017-09-17T06:48:54.992Z,11.29
2017-09-17T06:51:23.289Z,11.60
2017-09-17T06:53:52.387Z,11.77
2017-09-17T06:56:21.459Z,11.85
2017-09-17T06:58:49.773Z,12.06
2017-09-17T07:01:18.859Z,12.14
2017-09-17T07:03:47.954Z,12.35
2017-09-17T07:06:17.016Z,12.52
2017-09-17T07:08:45.353Z,12.65
2017-09-17T07:11:13.657Z,12.71
2017-09-17T07:13:41.956Z,13.08
2017-09-17T07:16:10.282Z,13.37
2017-09-17T07:18:38.586Z,13.97
2017-09-17T07:21:06.884Z,14.22
2017-09-17T07:23:35.176Z,14.52
2017-09-17T07:26:04.870Z,15.05
2017-09-17T07:28:33.172Z,15.25
2017-09-17T07:31:02.244Z,15.31
2017-09-17T07:33:30.540Z,15.98
2017-09-17T07:35:59.653Z,15.80
2017-09-17T07:38:27.954Z,15.74
2017-09-17T07:43:53.381Z,16.16
2017-09-17T07:46:21.693Z,16.11
2017-09-17T07:48:50.009Z,16.53
2017-09-17T07:51:18.360Z,16.46
2017-09-17T07:53:46.697Z,16.50
2017-09-17T07:56:15.072Z,16.24
2017-09-17T07:58:43.404Z,16.24
2017-09-17T08:01:11.719Z,16.35
2017-09-17T08:03:40.049Z,16.40
2017-09-17T08:06:09.141Z,16.52
2017-09-17T08:08:37.465Z,16.86
2017-09-17T08:11:05.771Z,16.92
2017-09-17T08:13:34.076Z,16.97
2017-09-17T08:16:02.386Z,16.87
2017-09-17T08:18:30.708Z,17.52
2017-09-17T08:20:59.029Z,16.89
2017-09-17T08:23:28.138Z,17.39
2017-09-17T08:25:56.446Z,17.89
2017-09-17T08:28:24.815Z,18.05
2017-09-17T08:30:53.123Z,17.92
2017-09-17T08:33:21.417Z,17.14
2017-09-17T08:35:49.720Z,17.69
2017-09-17T08:38:18.032Z,17.33
2017-09-17T08:40:46.333Z,17.79
2017-09-17T08:43:14.630Z,18.03
2017-09-17T08:45:42.959Z,18.35
2017-09-17T08:48:11.277Z,17.99
2017-09-17T08:50:39.602Z,18.23
2017-09-17T08:53:07.908Z,18.45
2017-09-17T08:55:36.219Z,18.08
2017-09-17T08:58:04.535Z,17.87
2017-09-17T09:00:32.828Z,17.69
2017-09-17T09:03:01.129Z,17.51
2017-09-17T09:05:29.430Z,18.15
2017-09-17T09:07:58.512Z,17.62
2017-09-17T09:10:26.809Z,18.08
2017-09-17T09:12:55.885Z,18.75
2017-09-17T09:15:24.181Z,19.23
2017-09-17T09:17:52.492Z,19.24
2017-09-17T09:20:20.800Z,22.05
2017-09-17T09:22:49.920Z,26.68
2017-09-17T09:25:18.227Z,24.25
2017-09-17T09:27:46.556Z,21.00
2017-09-17T09:30:15.629Z,20.42
2017-09-17T09:32:43.925Z,20.44
2017-09-17T09:35:13.003Z,19.86
2017-09-17T09:37:41.308Z,19.58
2017-09-17T09:40:09.639Z,20.11
2017-09-17T09:42:37.956Z,20.53
2017-09-17T09:45:06.298Z,21.58
2017-09-17T09:47:34.617Z,23.26
2017-09-17T09:50:03.004Z,22.96
2017-09-17T09:52:31.310Z,22.54
2017-09-17T09:54:59.620Z,22.27
2017-09-17T09:57:28.701Z,23.08
2017-09-17T09:59:57.013Z,22.38
2017-09-17T10:02:25.324Z,22.39
2017-09-17T10:04:53.621Z,23.65
2017-09-17T10:07:21.926Z,24.73
2017-09-17T10:09:50.999Z,25.41
2017-09-17T10:12:19.359Z,25.87
2017-09-17T10:14:47.665Z,25.71
2017-09-17T10:17:15.970Z,25.93
2017-09-17T10:19:44.280Z,24.05
2017-09-17T10:22:12.604Z,24.76
2017-09-17T10:24:40.902Z,23.03
2017-09-17T10:27:09.994Z,22.59
2017-09-17T10:29:39.057Z,23.47
2017-09-17T10:32:07.394Z,24.12
2017-09-17T10:34:35.773Z,22.85
2017-09-17T10:37:04.069Z,21.84
2017-09-17T10:39:32.382Z,21.19
2017-09-17T10:42:00.678Z,20.56
2017-09-17T10:44:29.758Z,20.28
2017-09-17T10:46:59.100Z,20.15
2017-09-17T10:49:27.401Z,20.02
2017-09-17T10:51:55.697Z,20.49
2017-09-17T10:54:24.024Z,22.73
2017-09-17T10:56:52.329Z,24.46
2017-09-17T10:59:20.634Z,23.41
2017-09-17T11:01:48.945Z,23.38
2017-09-17T11:04:17.258Z,22.10
2017-09-17T11:06:45.569Z,21.88
2017-09-17T11:09:13.877Z,21.59
2017-09-17T11:11:42.208Z,21.56
2017-09-17T11:14:10.516Z,21.48
2017-09-17T11:16:39.595Z,20.79
2017-09-17T11:19:07.904Z,20.61
2017-09-17T11:21:36.233Z,20.85
2017-09-17T11:24:04.533Z,21.36
2017-09-17T11:26:32.830Z,21.34
2017-09-17T11:29:01.901Z,20.80
2017-09-17T11:31:30.202Z,20.47
2017-09-17T11:33:59.265Z,20.99
2017-09-17T11:36:27.560Z,21.06
2017-09-17T11:38:56.630Z,22.92
2017-09-17T11:41:24.925Z,22.21
2017-09-17T11:43:53.252Z,21.42
2017-09-17T11:46:21.561Z,21.36
2017-09-17T11:48:50.677Z,21.30
2017-09-17T11:51:19.736Z,21.09
2017-09-17T11:53:48.038Z,20.51
2017-09-17T11:56:16.346Z,19.67
2017-09-17T11:58:44.646Z,19.45
2017-09-17T12:01:12.965Z,19.61
2017-09-17T12:03:42.142Z,19.89
2017-09-17T12:06:10.445Z,20.20
2017-09-17T12:08:38.737Z,20.22
2017-09-17T12:11:07.832Z,19.84
2017-09-17T12:13:36.896Z,19.81
2017-09-17T12:16:05.193Z,20.04
2017-09-17T12:18:33.497Z,19.89
2017-09-17T12:21:01.810Z,20.14
2017-09-17T12:23:30.118Z,20.18
2017-09-17T12:25:58.416Z,20.69
2017-09-17T12:28:27.498Z,20.84
2017-09-17T12:30:55.798Z,21.37
2017-09-17T12:33:24.865Z,21.64
2017-09-17T12:35:53.168Z,21.99
2017-09-17T12:38:21.544Z,22.27
2017-09-17T12:40:49.849Z,22.29
2017-09-17T12:43:18.344Z,21.86
2017-09-17T12:45:46.655Z,22.05
2017-09-17T12:48:14.996Z,22.56
2017-09-17T12:50:43.300Z,23.07
2017-09-17T12:53:11.589Z,22.74
2017-09-17T12:55:39.891Z,22.34
2017-09-17T12:58:08.957Z,22.29
2017-09-17T13:00:37.273Z,22.19
2017-09-17T13:03:05.573Z,21.41
2017-09-17T13:05:33.899Z,21.46
2017-09-17T13:08:02.196Z,21.10
2017-09-17T13:10:30.488Z,20.86
2017-09-17T13:12:58.799Z,20.51
2017-09-17T13:15:27.105Z,20.81
2017-09-17T13:17:56.194Z,20.28
2017-09-17T13:20:24.494Z,20.39
2017-09-17T13:22:53.606Z,20.28
2017-09-17T13:25:21.909Z,20.28
2017-09-17T13:27:50.221Z,20.47
2017-09-17T13:30:18.516Z,20.22
2017-09-17T13:32:47.614Z,20.11
2017-09-17T13:35:16.679Z,19.92
2017-09-17T13:37:44.993Z,20.15
2017-09-17T13:40:14.526Z,19.92
2017-09-17T13:42:42.821Z,19.78
2017-09-17T13:45:11.130Z,20.00
2017-09-17T13:47:39.437Z,20.78
2017-09-17T13:50:07.749Z,20.76
2017-09-17T13:52:36.041Z,21.32
2017-09-17T13:55:04.360Z,21.66
2017-09-17T13:57:33.421Z,22.26
2017-09-17T14:00:02.530Z,22.94
2017-09-17T14:05:53.245Z,22.42
2017-09-17T14:11:25.425Z,21.73
2017-09-17T14:13:53.733Z,21.71
2017-09-17T14:16:22.801Z,21.04
2017-09-17T14:18:51.126Z,21.20
2017-09-17T14:21:19.441Z,20.94
2017-09-17T14:23:47.759Z,20.45
2017-09-17T14:26:16.829Z,20.50
2017-09-17T14:28:45.160Z,20.06
2017-09-17T14:31:13.557Z,19.53
2017-09-17T14:33:41.853Z,19.65
2017-09-17T14:36:10.183Z,19.54
2017-09-17T14:38:38.489Z,19.63
2017-09-17T14:41:06.825Z,19.35
2017-09-17T14:43:35.143Z,19.33
2017-09-17T14:46:04.230Z,19.28
2017-09-17T14:48:32.537Z,18.86
2017-09-17T14:51:00.842Z,18.64
2017-09-17T14:53:29.917Z,18.56
2017-09-17T14:55:58.220Z,18.63
2017-09-17T14:58:27.303Z,18.81
2017-09-17T15:00:55.615Z,18.94
2017-09-17T15:03:23.913Z,19.28
2017-09-17T15:05:52.245Z,20.11
2017-09-17T15:08:21.313Z,20.46
2017-09-17T15:10:49.626Z,20.01
2017-09-17T15:13:18.839Z,19.82
2017-09-17T15:15:47.141Z,19.58
2017-09-17T15:18:15.457Z,19.60
2017-09-17T15:20:43.763Z,19.53
2017-09-17T15:23:12.077Z,19.96
2017-09-17T15:25:41.155Z,20.41
2017-09-17T15:28:09.482Z,20.26
2017-09-17T15:30:38.561Z,19.92
2017-09-17T15:33:06.868Z,19.87
2017-09-17T15:35:35.933Z,19.56
2017-09-17T15:38:04.242Z,19.62
2017-09-17T15:40:33.319Z,19.49
2017-09-17T15:43:02.403Z,19.47
2017-09-17T15:45:30.722Z,19.54
2017-09-17T15:47:59.021Z,19.47
2017-09-17T15:50:27.322Z,19.43
2017-09-17T15:52:55.622Z,19.43
2017-09-17T15:55:23.947Z,19.37
2017-09-17T15:57:52.248Z,19.00
2017-09-17T16:00:20.595Z,18.92
2017-09-17T16:02:48.909Z,18.85
2017-09-17T16:05:17.208Z,18.72
2017-09-17T16:07:45.522Z,18.67
2017-09-17T16:10:13.817Z,18.56
2017-09-17T16:12:42.126Z,18.52
2017-09-17T16:15:10.435Z,18.31
2017-09-17T16:17:39.534Z,18.26
2017-09-17T16:20:08.625Z,17.94
2017-09-17T16:22:37.721Z,17.83
2017-09-17T16:25:06.920Z,17.56
2017-09-17T16:27:35.279Z,17.35
2017-09-17T16:30:04.389Z,17.27
2017-09-17T16:32:33.464Z,17.11
2017-09-17T16:35:01.793Z,16.90
2017-09-17T16:37:30.120Z,16.79
2017-09-17T16:39:58.431Z,16.49
2017-09-17T16:42:26.732Z,16.50
2017-09-17T16:44:55.069Z,16.54
2017-09-17T16:47:24.130Z,16.49
2017-09-17T16:49:52.433Z,15.96
2017-09-17T16:52:20.745Z,14.89
2017-09-17T16:54:49.035Z,14.19
2017-09-17T16:57:17.346Z,14.04
2017-09-17T16:59:45.641Z,13.96
2017-09-17T17:02:13.955Z,13.88
2017-09-17T17:04:42.273Z,13.71
2017-09-17T17:07:10.617Z,13.72
2017-09-17T17:09:38.925Z,13.67
2017-09-17T17:12:07.234Z,13.69
2017-09-17T17:14:36.300Z,13.74
2017-09-17T17:17:04.609Z,13.72
2017-09-17T17:19:34.410Z,13.77
2017-09-17T17:22:03.476Z,13.78
2017-09-17T17:24:31.785Z,13.72
2017-09-17T17:27:00.852Z,13.69
2017-09-17T17:29:29.198Z,13.75
2017-09-17T17:31:57.534Z,13.70
2017-09-17T17:34:25.842Z,13.67
2017-09-17T17:36:54.917Z,13.66
2017-09-17T17:39:23.730Z,13.73
2017-09-17T17:41:52.053Z,13.79
2017-09-17T17:44:20.582Z,13.79
2017-09-17T17:46:48.901Z,13.87
2017-09-17T17:49:17.221Z,13.80
2017-09-17T17:51:45.577Z,13.84
2017-09-17T17:54:13.893Z,13.85
2017-09-17T17:56:42.246Z,13.76
2017-09-17T17:59:11.317Z,13.77
2017-09-17T18:01:39.616Z,13.80
2017-09-17T18:04:07.919Z,13.84
2017-09-17T18:06:36.224Z,13.75
2017-09-17T18:09:04.545Z,13.63
2017-09-17T18:11:33.618Z,13.55
2017-09-17T18:14:01.933Z,13.55
2017-09-17T18:16:31.003Z,13.53
2017-09-17T18:18:59.317Z,13.34
2017-09-17T18:21:27.638Z,13.17
2017-09-17T18:23:55.987Z,13.15
2017-09-17T18:26:24.294Z,13.05
2017-09-17T18:28:52.597Z,13.05
2017-09-17T18:31:20.952Z,12.86
2017-09-17T18:33:49.259Z,12.86
2017-09-17T18:36:17.584Z,12.79
2017-09-17T18:38:45.900Z,12.69
2017-09-17T18:41:14.237Z,12.60
2017-09-17T18:43:42.533Z,12.56
2017-09-17T18:46:10.885Z,12.59
2017-09-17T18:48:39.186Z,12.55
2017-09-17T18:51:12.913Z,12.53
2017-09-17T18:53:41.215Z,12.55
2017-09-17T18:56:10.349Z,12.45
2017-09-17T18:58:38.657Z,12.36
2017-09-17T19:01:06.953Z,12.25
2017-09-17T19:03:36.051Z,12.14
2017-09-17T19:06:05.126Z,12.01
2017-09-17T19:08:33.430Z,11.98
2017-09-17T19:11:02.493Z,11.98
2017-09-17T19:13:30.801Z,11.96
2017-09-17T19:15:59.861Z,11.94
2017-09-17T19:18:28.227Z,11.88
2017-09-17T19:20:56.537Z,11.86
2017-09-17T19:23:24.837Z,11.83
2017-09-17T19:25:53.145Z,11.81
2017-09-17T19:28:21.481Z,11.84
2017-09-17T19:30:50.549Z,11.89
2017-09-17T19:33:18.862Z,11.82
2017-09-17T19:35:47.187Z,11.75
2017-09-17T19:38:15.498Z,11.75
2017-09-17T19:40:43.835Z,11.80
2017-09-17T19:43:12.166Z,11.80
2017-09-17T19:45:41.251Z,11.74
2017-09-17T19:48:09.557Z,11.66
2017-09-17T19:50:37.881Z,11.59
2017-09-17T19:53:06.217Z,11.48
2017-09-17T19:55:34.553Z,11.28
2017-09-17T19:58:03.644Z,11.17
2017-09-17T20:00:31.977Z,11.15
2017-09-17T20:03:00.296Z,11.05
2017-09-17T20:05:28.601Z,11.00
2017-09-17T20:07:57.681Z,10.96
2017-09-17T20:10:25.973Z,10.95
2017-09-17T20:12:55.066Z,10.91
2017-09-17T20:15:24.130Z,10.87
2017-09-17T20:17:52.442Z,10.81
2017-09-17T20:20:21.513Z,10.75
2017-09-17T20:22:49.850Z,10.71
2017-09-17T20:25:18.788Z,10.71
2017-09-17T20:27:47.990Z,10.65
2017-09-17T20:30:16.427Z,10.73
2017-09-17T20:32:44.876Z,10.68
2017-09-17T20:35:13.219Z,10.53
2017-09-17T20:37:41.592Z,10.48
2017-09-17T20:40:09.905Z,10.47
2017-09-17T20:42:38.975Z,10.45
2017-09-17T20:45:07.277Z,10.41
2017-09-17T20:47:36.342Z,10.36
2017-09-17T20:50:04.650Z,10.30
2017-09-17T20:52:32.956Z,10.33
2017-09-17T20:55:01.286Z,10.25
2017-09-17T20:57:30.361Z,10.22
2017-09-17T20:59:59.084Z,10.21
2017-09-17T21:02:28.189Z,10.17
2017-09-17T21:04:56.491Z,10.15
2017-09-17T21:07:24.849Z,10.10
2017-09-17T21:09:53.153Z,10.04
2017-09-17T21:12:21.477Z,10.03
2017-09-17T21:14:50.550Z,10.02
2017-09-17T21:17:18.867Z,10.01
2017-09-17T21:19:47.178Z,9.98
2017-09-17T21:22:15.506Z,10.00
2017-09-17T21:24:44.561Z,10.00
2017-09-17T21:27:12.849Z,9.96
2017-09-17T21:29:41.157Z,9.92
2017-09-17T21:32:10.226Z,9.87
2017-09-17T21:34:38.524Z,9.85
2017-09-17T21:37:07.587Z,9.81
2017-09-17T21:39:35.903Z,9.76
2017-09-17T21:42:04.960Z,9.70
2017-09-17T21:44:33.260Z,9.66
2017-09-17T21:47:02.326Z,9.65
2017-09-17T21:49:30.628Z,9.63
2017-09-17T21:51:58.917Z,9.60
2017-09-17T21:54:27.980Z,9.60
2017-09-17T21:56:56.282Z,9.61
2017-09-17T21:59:24.568Z,9.62
2017-09-17T22:01:53.634Z,9.64
2017-09-17T22:04:21.926Z,9.60
2017-09-17T22:06:50.238Z,9.60
2017-09-17T22:09:18.532Z,9.48
2017-09-17T22:11:46.845Z,9.41
2017-09-17T22:14:15.139Z,9.35
2017-09-17T22:16:44.229Z,9.27
2017-09-17T22:19:12.517Z,9.23
2017-09-17T22:21:41.574Z,9.18
2017-09-17T22:24:09.869Z,9.10
2017-09-17T22:26:38.162Z,9.13
2017-09-17T22:29:07.238Z,9.14
2017-09-17T22:31:35.540Z,9.10
2017-09-17T22:34:04.601Z,9.08
2017-09-17T22:36:32.892Z,9.01
2017-09-17T22:39:01.205Z,9.06
2017-09-17T22:41:29.496Z,9.00
2017-09-17T22:43:57.788Z,8.97
2017-09-17T22:46:26.088Z,8.95
2017-09-17T22:48:54.377Z,8.89
2017-09-17T22:51:22.691Z,8.88
2017-09-17T22:53:50.985Z,8.82
2017-09-17T22:56:19.281Z,8.79
2017-09-17T22:58:47.588Z,8.73
2017-09-17T23:01:15.923Z,8.68
2017-09-17T23:03:44.209Z,8.59
2017-09-17T23:06:12.549Z,8.53
2017-09-17T23:08:40.844Z,8.58
2017-09-17T23:11:09.139Z,8.56
2017-09-17T23:13:37.458Z,8.54
2017-09-17T23:16:06.516Z,8.50
2017-09-17T23:18:34.813Z,8.50
2017-09-17T23:21:03.109Z,8.46
2017-09-17T23:23:32.196Z,8.52
2017-09-17T23:26:00.493Z,8.58
2017-09-17T23:28:28.792Z,8.54
2017-09-17T23:30:57.087Z,8.51
2017-09-17T23:33:25.377Z,8.38
2017-09-17T23:35:53.689Z,8.26
2017-09-17T23:38:22.753Z,8.24
2017-09-17T23:40:51.072Z,8.21
2017-09-17T23:43:19.373Z,8.20
2017-09-17T23:45:47.697Z,8.22
2017-09-17T23:48:15.985Z,8.21
2017-09-17T23:50:45.064Z,8.03
2017-09-17T23:53:13.388Z,7.91
2017-09-17T23:55:41.689Z,7.91
2017-09-17T23:58:09.997Z,7.95
